createdAt,value
2022-09-23T00:01:09.995Z,7.85
2022-09-23T00:03:39.074Z,9.18
2022-09-23T00:06:10.910Z,6.35
2022-09-23T00:08:38.777Z,9.95
2022-09-23T00:11:10.668Z,13.62
2022-09-23T00:13:38.569Z,8.55
2022-09-23T00:16:08.057Z,12.25
2022-09-23T00:18:35.466Z,9.57
2022-09-23T00:21:06.640Z,7.25
2022-09-23T00:23:34.355Z,9.68
2022-09-23T00:26:02.679Z,9.13
2022-09-23T00:28:30.615Z,8.85
2022-09-23T00:31:03.070Z,9.13
2022-09-23T00:33:30.462Z,8.13
2022-09-23T00:36:05.462Z,10.40
2022-09-23T00:38:34.012Z,11.02
2022-09-23T00:41:17.007Z,9.52
2022-09-23T00:43:52.867Z,11.32
2022-09-23T00:46:37.177Z,10.30
2022-09-23T00:49:14.083Z,9.38
2022-09-23T00:51:44.646Z,7.97
2022-09-23T00:54:11.990Z,14.63
2022-09-23T00:56:39.353Z,12.37
2022-09-23T00:59:07.606Z,18.77
2022-09-23T01:01:35.500Z,14.95
2022-09-23T01:04:02.935Z,23.60
2022-09-23T01:06:30.908Z,24.73
2022-09-23T01:08:58.277Z,19.12
2022-09-23T01:11:50.148Z,16.80
2022-09-23T01:14:38.994Z,17.15
2022-09-23T01:17:08.959Z,13.45
2022-09-23T01:19:36.396Z,17.30
2022-09-23T01:22:19.514Z,15.23
2022-09-23T01:25:09.101Z,16.00
2022-09-23T01:27:43.261Z,14.15
2022-09-23T01:30:11.107Z,13.55
2022-09-23T01:32:54.828Z,10.80
2022-09-23T01:35:34.293Z,10.63
2022-09-23T01:38:16.241Z,12.60
2022-09-23T01:41:05.019Z,12.23
2022-09-23T01:43:53.690Z,13.35
2022-09-23T01:46:25.490Z,13.57
2022-09-23T01:49:12.897Z,15.18
2022-09-23T01:51:46.778Z,12.90
2022-09-23T01:54:17.718Z,12.48
2022-09-23T01:56:53.800Z,11.95
2022-09-23T01:59:40.234Z,10.00
2022-09-23T02:02:16.621Z,12.85
2022-09-23T02:04:45.586Z,12.23
2022-09-23T02:07:32.216Z,11.12
2022-09-23T02:10:14.126Z,11.90
2022-09-23T02:12:42.168Z,9.05
2022-09-23T02:15:11.850Z,11.43
2022-09-23T02:17:42.562Z,10.73
2022-09-23T02:20:10.537Z,10.48
2022-09-23T02:22:44.426Z,9.80
2022-09-23T02:25:12.586Z,11.45
2022-09-23T02:27:44.734Z,10.25
2022-09-23T02:30:17.770Z,8.43
2022-09-23T02:32:58.385Z,8.68
2022-09-23T02:35:37.127Z,9.68
2022-09-23T02:38:12.618Z,7.43
2022-09-23T02:40:54.780Z,9.73
2022-09-23T02:43:36.126Z,7.95
2022-09-23T02:46:04.069Z,8.40
2022-09-23T02:48:53.315Z,9.65
2022-09-23T02:51:21.002Z,9.38
2022-09-23T02:53:48.339Z,10.60
2022-09-23T02:56:20.978Z,9.90
2022-09-23T02:58:49.289Z,7.70
2022-09-23T03:01:41.259Z,8.43
2022-09-23T03:04:27.065Z,8.43
2022-09-23T03:07:22.055Z,11.00
2022-09-23T03:10:04.748Z,8.25
2022-09-23T03:12:52.879Z,8.20
2022-09-23T03:15:36.546Z,9.40
2022-09-23T03:18:15.878Z,8.88
2022-09-23T03:20:50.157Z,8.48
2022-09-23T03:23:23.566Z,7.25
2022-09-23T03:25:54.046Z,7.32
2022-09-23T03:28:22.147Z,8.05
2022-09-23T03:30:51.027Z,7.97
2022-09-23T03:33:19.509Z,11.90
2022-09-23T03:36:13.173Z,10.88
2022-09-23T03:38:43.154Z,8.43
2022-09-23T03:41:12.038Z,9.93
2022-09-23T03:43:39.430Z,10.25
2022-09-23T03:46:08.212Z,8.18
2022-09-23T03:48:35.585Z,10.73
2022-09-23T03:51:18.108Z,11.82
2022-09-23T03:53:45.743Z,10.10
2022-09-23T03:56:13.102Z,14.30
2022-09-23T03:58:40.502Z,10.40
2022-09-23T04:01:08.172Z,10.32
2022-09-23T04:03:35.802Z,11.12
2022-09-23T04:06:03.130Z,12.07
2022-09-23T04:08:30.531Z,14.70
2022-09-23T04:11:01.720Z,11.48
2022-09-23T04:13:29.445Z,11.02
2022-09-23T04:15:56.809Z,12.37
2022-09-23T04:18:24.523Z,11.25
2022-09-23T04:20:51.871Z,15.57
2022-09-23T04:23:19.219Z,11.00
2022-09-23T04:25:49.643Z,11.65
2022-09-23T04:28:16.980Z,11.27
2022-09-23T04:30:46.040Z,13.88
2022-09-23T04:33:13.728Z,10.57
2022-09-23T04:35:43.042Z,10.57
2022-09-23T04:38:13.431Z,12.82
2022-09-23T04:40:41.119Z,13.40
2022-09-23T04:43:13.363Z,11.50
2022-09-23T04:45:41.489Z,14.68
2022-09-23T04:48:10.270Z,16.33
2022-09-23T04:50:37.814Z,14.63
2022-09-23T04:53:05.537Z,14.32
2022-09-23T04:55:32.902Z,16.90
2022-09-23T04:58:00.386Z,20.58
2022-09-23T05:00:28.666Z,28.05
2022-09-23T05:02:56.136Z,23.00
2022-09-23T05:05:24.230Z,19.35
2022-09-23T05:07:51.852Z,18.75
2022-09-23T05:10:19.191Z,22.37
2022-09-23T05:12:46.545Z,32.72
2022-09-23T05:15:15.136Z,29.55
2022-09-23T05:17:43.100Z,25.37
2022-09-23T05:20:11.350Z,23.15
2022-09-23T05:22:38.973Z,21.92
2022-09-23T05:25:06.518Z,21.70
2022-09-23T05:27:33.864Z,21.12
2022-09-23T05:30:01.494Z,17.02
2022-09-23T05:32:28.826Z,17.90
2022-09-23T05:34:56.218Z,18.08
2022-09-23T05:37:25.327Z,16.45
2022-09-23T05:39:52.690Z,20.17
2022-09-23T05:42:20.975Z,19.48
2022-09-23T05:44:48.900Z,18.17
2022-09-23T05:47:16.306Z,15.65
2022-09-23T05:49:59.103Z,18.27
2022-09-23T05:52:27.982Z,13.77
2022-09-23T05:54:55.372Z,17.02
2022-09-23T05:57:22.748Z,15.70
2022-09-23T05:59:50.402Z,14.87
2022-09-23T06:02:17.836Z,15.23
2022-09-23T06:04:45.498Z,15.80
2022-09-23T06:07:12.879Z,11.43
2022-09-23T06:09:42.356Z,12.70
2022-09-23T06:12:09.995Z,14.75
2022-09-23T06:14:37.372Z,11.70
2022-09-23T06:17:05.586Z,12.13
2022-09-23T06:19:33.200Z,17.52
2022-09-23T06:22:00.580Z,12.98
2022-09-23T06:24:31.320Z,14.93
2022-09-23T06:26:59.059Z,11.38
2022-09-23T06:29:26.505Z,10.77
2022-09-23T06:31:53.901Z,12.02
2022-09-23T06:34:21.758Z,11.07
2022-09-23T06:36:49.338Z,10.18
2022-09-23T06:39:16.734Z,12.50
2022-09-23T06:41:45.114Z,9.10
2022-09-23T06:44:13.837Z,15.18
2022-09-23T06:46:41.360Z,13.85
2022-09-23T06:49:09.132Z,12.27
2022-09-23T06:51:36.709Z,10.40
2022-09-23T06:54:04.476Z,12.52
2022-09-23T06:56:36.304Z,10.77
2022-09-23T06:59:05.558Z,11.38
2022-09-23T07:01:34.470Z,12.32
2022-09-23T07:04:02.066Z,11.05
2022-09-23T07:06:29.403Z,12.90
2022-09-23T07:08:57.040Z,9.95
2022-09-23T07:11:24.391Z,10.32
2022-09-23T07:13:51.783Z,10.57
2022-09-23T07:16:19.717Z,10.02
2022-09-23T07:18:47.346Z,11.00
2022-09-23T07:21:18.457Z,8.07
2022-09-23T07:23:47.551Z,9.60
2022-09-23T07:26:15.193Z,7.50
2022-09-23T07:28:42.606Z,7.80
2022-09-23T07:31:12.785Z,10.63
2022-09-23T07:33:41.454Z,7.25
2022-09-23T07:36:13.505Z,7.20
2022-09-23T07:38:45.177Z,9.27
2022-09-23T07:41:17.759Z,9.13
2022-09-23T07:43:46.108Z,12.75
2022-09-23T07:46:16.408Z,8.52
2022-09-23T07:48:44.703Z,9.65
2022-09-23T07:51:36.328Z,9.45
2022-09-23T07:54:10.276Z,11.82
2022-09-23T07:56:38.323Z,10.48
2022-09-23T07:59:08.568Z,8.38
2022-09-23T08:01:41.281Z,8.57
2022-09-23T08:04:12.052Z,7.85
2022-09-23T08:06:43.876Z,7.55
2022-09-23T08:09:11.713Z,8.55
2022-09-23T08:11:42.483Z,6.07
2022-09-23T08:14:10.994Z,7.32
2022-09-23T08:16:39.826Z,6.78
2022-09-23T08:19:07.537Z,8.43
2022-09-23T08:21:34.953Z,8.20
2022-09-23T08:24:02.781Z,6.10
2022-09-23T08:26:30.932Z,20.25
2022-09-23T08:28:58.535Z,10.07
2022-09-23T08:31:27.562Z,9.43
2022-09-23T08:33:56.261Z,8.65
2022-09-23T08:36:24.171Z,10.73
2022-09-23T08:38:51.983Z,8.90
2022-09-23T08:41:37.947Z,9.60
2022-09-23T08:44:16.967Z,11.65
2022-09-23T08:46:48.028Z,12.82
2022-09-23T08:49:21.725Z,11.25
2022-09-23T08:51:49.309Z,18.67
2022-09-23T08:54:17.070Z,8.10
2022-09-23T08:56:45.309Z,12.50
2022-09-23T08:59:15.037Z,9.02
2022-09-23T09:02:45.837Z,9.85
2022-09-23T09:06:27.865Z,9.63
2022-09-23T09:09:27.189Z,8.70
2022-09-23T09:12:16.801Z,8.50
2022-09-23T09:14:57.010Z,7.22
2022-09-23T09:18:03.731Z,13.10
2022-09-23T09:20:41.500Z,12.50
2022-09-23T09:23:23.453Z,11.70
2022-09-23T09:26:01.598Z,10.38
2022-09-23T09:28:43.533Z,9.38
2022-09-23T09:31:42.594Z,14.20
2022-09-23T09:34:34.474Z,10.00
2022-09-23T09:37:18.237Z,8.13
2022-09-23T09:39:46.353Z,11.25
2022-09-23T09:42:23.594Z,10.90
2022-09-23T09:45:01.907Z,10.13
2022-09-23T09:48:00.962Z,10.55
2022-09-23T09:50:49.360Z,9.50
2022-09-23T09:53:21.852Z,8.68
2022-09-23T09:56:11.260Z,12.15
2022-09-23T09:58:54.021Z,11.85
2022-09-23T10:01:31.925Z,10.93
2022-09-23T10:04:18.640Z,13.50
2022-09-23T10:07:03.022Z,26.23
2022-09-23T10:09:33.808Z,8.88
2022-09-23T10:12:21.310Z,10.07
2022-09-23T10:14:51.420Z,11.43
2022-09-23T10:17:28.399Z,8.43
2022-09-23T10:20:01.005Z,8.65
2022-09-23T10:22:47.106Z,8.38
2022-09-23T10:25:20.290Z,10.30
2022-09-23T10:27:47.622Z,10.60
2022-09-23T10:30:15.044Z,9.25
2022-09-23T10:32:45.368Z,8.38
2022-09-23T10:35:23.822Z,10.73
2022-09-23T10:37:55.531Z,10.85
2022-09-23T10:40:56.033Z,7.18
2022-09-23T10:44:07.208Z,8.70
2022-09-23T10:46:41.668Z,9.13
2022-09-23T10:49:31.134Z,9.90
2022-09-23T10:52:22.680Z,10.68
2022-09-23T10:55:17.666Z,7.05
2022-09-23T10:57:44.922Z,7.93
2022-09-23T11:00:27.687Z,7.82
2022-09-23T11:03:18.649Z,6.57
2022-09-23T11:05:58.266Z,9.15
2022-09-23T11:08:59.619Z,7.75
2022-09-23T11:11:46.331Z,9.43
2022-09-23T11:14:32.748Z,6.72
2022-09-23T11:17:24.783Z,10.93
2022-09-23T11:19:56.457Z,7.78
2022-09-23T11:22:45.734Z,6.85
2022-09-23T11:25:40.876Z,7.90
2022-09-23T11:28:42.487Z,9.02
2022-09-23T11:31:37.341Z,6.68
2022-09-23T11:34:30.218Z,8.77
2022-09-23T11:37:12.840Z,7.32
2022-09-23T11:40:03.584Z,9.18
2022-09-23T11:42:33.903Z,7.80
2022-09-23T11:45:13.061Z,6.95
2022-09-23T11:47:46.652Z,7.97
2022-09-23T11:50:47.036Z,10.38
2022-09-23T11:53:45.152Z,9.70
2022-09-23T11:56:33.319Z,10.35
2022-09-23T11:59:19.986Z,9.80
2022-09-23T12:01:55.308Z,9.25
2022-09-23T12:04:52.650Z,9.98
2022-09-23T12:07:25.672Z,10.85
2022-09-23T12:10:03.534Z,7.93
2022-09-23T12:12:52.147Z,8.70
2022-09-23T12:15:27.017Z,7.75
2022-09-23T12:18:04.695Z,10.02
2022-09-23T12:21:08.763Z,9.75
2022-09-23T12:23:53.996Z,6.50
2022-09-23T12:26:23.250Z,7.47
2022-09-23T12:28:52.010Z,10.95
2022-09-23T12:31:21.894Z,9.60
2022-09-23T12:33:53.655Z,6.90
2022-09-23T12:36:34.720Z,9.18
2022-09-23T12:39:06.331Z,9.82
2022-09-23T12:41:38.723Z,9.90
2022-09-23T12:44:15.403Z,8.23
2022-09-23T12:49:28.276Z,10.32
2022-09-23T12:52:10.754Z,7.97
2022-09-23T12:54:39.343Z,8.00
2022-09-23T12:57:32.198Z,7.97
2022-09-23T13:00:13.125Z,4.62
2022-09-23T13:02:46.966Z,6.32
2022-09-23T13:05:40.483Z,4.50
2022-09-23T13:08:18.604Z,5.28
2022-09-23T13:10:54.690Z,4.62
2022-09-23T13:13:29.663Z,4.90
2022-09-23T13:16:12.608Z,5.85
2022-09-23T13:19:04.800Z,6.70
2022-09-23T13:21:44.871Z,7.07
2022-09-23T13:24:28.923Z,6.57
2022-09-23T13:27:00.331Z,6.72
2022-09-23T13:29:38.110Z,5.62
2022-09-23T13:32:06.363Z,6.18
2022-09-23T13:34:34.545Z,7.53
2022-09-23T13:37:22.176Z,6.72
2022-09-23T13:39:50.997Z,6.28
2022-09-23T13:42:38.172Z,5.53
2022-09-23T13:45:06.658Z,5.53
2022-09-23T13:47:34.008Z,6.30
2022-09-23T13:50:02.131Z,5.90
2022-09-23T13:52:31.327Z,8.57
2022-09-23T13:54:58.720Z,5.82
2022-09-23T13:57:27.975Z,5.40
2022-09-23T14:00:21.152Z,5.12
2022-09-23T14:02:48.920Z,7.37
2022-09-23T14:05:27.192Z,5.93
2022-09-23T14:07:55.302Z,7.40
2022-09-23T14:10:28.732Z,8.68
2022-09-23T14:13:00.925Z,5.97
2022-09-23T14:15:32.717Z,7.15
2022-09-23T14:18:06.592Z,6.75
2022-09-23T14:20:50.440Z,4.47
2022-09-23T14:23:20.752Z,2.90
2022-09-23T14:25:49.251Z,3.53
2022-09-23T14:28:19.183Z,8.70
2022-09-23T14:30:51.357Z,6.40
2022-09-23T14:33:27.407Z,3.58
2022-09-23T14:36:07.245Z,6.07
2022-09-23T14:38:51.819Z,7.95
2022-09-23T14:41:23.751Z,4.12
2022-09-23T14:43:54.612Z,7.57
2022-09-23T14:46:23.076Z,3.75
2022-09-23T14:49:11.642Z,5.85
2022-09-23T14:51:49.357Z,6.97
2022-09-23T14:54:44.008Z,3.95
2022-09-23T14:57:38.558Z,4.30
2022-09-23T15:00:18.142Z,6.82
2022-09-23T15:02:57.774Z,8.85
2022-09-23T15:05:45.292Z,5.55
2022-09-23T15:08:15.786Z,9.77
2022-09-23T15:10:43.099Z,4.85
2022-09-23T15:13:22.247Z,6.07
2022-09-23T15:15:53.403Z,5.43
2022-09-23T15:18:25.604Z,5.85
2022-09-23T15:20:54.690Z,9.48
2022-09-23T15:23:50.666Z,7.07
2022-09-23T15:26:39.191Z,7.82
2022-09-23T15:29:09.773Z,7.70
2022-09-23T15:31:37.708Z,9.30
2022-09-23T15:34:10.140Z,4.35
2022-09-23T15:36:38.569Z,5.03
2022-09-23T15:39:07.067Z,7.55
2022-09-23T15:41:34.692Z,8.48
2022-09-23T15:44:11.463Z,4.50
2022-09-23T15:46:39.990Z,5.75
2022-09-23T15:49:15.213Z,4.70
2022-09-23T15:51:43.063Z,10.15
2022-09-23T15:54:13.822Z,4.90
2022-09-23T15:56:41.167Z,10.38
2022-09-23T15:59:08.573Z,8.95
2022-09-23T16:01:36.444Z,7.32
2022-09-23T16:04:04.527Z,18.98
2022-09-23T16:06:32.098Z,7.22
2022-09-23T16:08:59.430Z,8.52
2022-09-23T16:11:33.437Z,9.95
2022-09-23T16:14:00.831Z,7.45
2022-09-23T16:16:28.715Z,9.00
2022-09-23T16:18:56.216Z,6.90
2022-09-23T16:21:24.741Z,6.87
2022-09-23T16:23:53.418Z,9.95
2022-09-23T16:26:22.894Z,8.52
2022-09-23T16:28:51.169Z,14.00
2022-09-23T16:31:19.304Z,23.27
2022-09-23T16:33:47.177Z,18.67
2022-09-23T16:36:28.888Z,23.15
2022-09-23T16:38:56.721Z,31.10
2022-09-23T16:41:24.767Z,24.70
2022-09-23T16:43:52.918Z,22.48
2022-09-23T16:46:20.793Z,18.33
2022-09-23T16:48:52.357Z,12.45
2022-09-23T16:51:21.228Z,22.30
2022-09-23T16:53:49.344Z,14.65
2022-09-23T16:56:17.535Z,15.70
2022-09-23T16:58:44.862Z,23.70
2022-09-23T17:01:39.362Z,13.50
2022-09-23T17:04:07.447Z,10.25
2022-09-23T17:06:35.509Z,16.02
2022-09-23T17:09:03.023Z,15.18
2022-09-23T17:11:33.964Z,18.65
2022-09-23T17:14:01.879Z,24.90
2022-09-23T17:16:30.823Z,27.62
2022-09-23T17:18:58.229Z,15.73
2022-09-23T17:21:26.870Z,16.45
2022-09-23T17:23:55.099Z,16.20
2022-09-23T17:26:23.889Z,21.10
2022-09-23T17:28:51.954Z,12.37
2022-09-23T17:31:19.512Z,16.20
2022-09-23T17:33:46.918Z,15.52
2022-09-23T17:36:14.730Z,16.95
2022-09-23T17:38:45.986Z,15.10
2022-09-23T17:41:13.728Z,15.27
2022-09-23T17:43:41.491Z,14.82
2022-09-23T17:46:18.187Z,14.68
2022-09-23T17:48:45.925Z,14.20
2022-09-23T17:51:15.050Z,17.45
2022-09-23T17:53:45.012Z,24.92
2022-09-23T17:56:20.133Z,23.75
2022-09-23T17:58:48.410Z,24.58
2022-09-23T18:01:18.378Z,39.42
2022-09-23T18:03:46.386Z,42.80
2022-09-23T18:06:13.626Z,30.75
2022-09-23T18:08:41.868Z,26.50
2022-09-23T18:11:22.754Z,26.70
2022-09-23T18:13:51.032Z,21.33
2022-09-23T18:16:19.087Z,23.08
2022-09-23T18:18:53.461Z,23.08
2022-09-23T18:21:21.860Z,24.83
2022-09-23T18:23:49.308Z,25.05
2022-09-23T18:26:17.891Z,21.95
2022-09-23T18:28:45.862Z,20.95
2022-09-23T18:31:18.022Z,20.77
2022-09-23T18:33:52.181Z,22.30
2022-09-23T18:36:23.873Z,18.25
2022-09-23T18:38:52.189Z,20.12
2022-09-23T18:41:19.718Z,17.15
2022-09-23T18:43:48.693Z,15.73
2022-09-23T18:46:18.423Z,21.52
2022-09-23T18:49:04.660Z,17.40
2022-09-23T18:54:00.753Z,15.15
2022-09-23T18:56:39.610Z,15.88
2022-09-23T18:59:14.471Z,13.00
2022-09-23T19:01:42.085Z,18.15
2022-09-23T19:04:09.959Z,15.25
2022-09-23T19:06:37.437Z,13.85
2022-09-23T19:09:05.826Z,18.58
2022-09-23T19:11:36.186Z,20.33
2022-09-23T19:14:08.162Z,14.18
2022-09-23T19:16:37.523Z,27.15
2022-09-23T19:19:05.257Z,23.30
2022-09-23T19:21:33.445Z,41.00
2022-09-23T19:24:03.650Z,29.25
2022-09-23T19:26:38.243Z,35.58
2022-09-23T19:29:08.404Z,40.15
2022-09-23T19:31:39.139Z,27.65
2022-09-23T19:34:11.474Z,21.73
2022-09-23T19:36:39.921Z,25.50
2022-09-23T19:39:21.107Z,21.23
2022-09-23T19:41:49.053Z,18.10
2022-09-23T19:44:17.891Z,16.98
2022-09-23T19:46:46.232Z,13.73
2022-09-23T19:49:13.876Z,13.05
2022-09-23T19:51:41.520Z,11.93
2022-09-23T19:54:09.962Z,12.98
2022-09-23T19:56:38.582Z,9.60
2022-09-23T19:59:09.177Z,9.55
2022-09-23T20:01:36.650Z,7.65
2022-09-23T20:04:04.402Z,13.13
2022-09-23T20:06:33.933Z,11.75
2022-09-23T20:09:01.540Z,9.23
2022-09-23T20:11:29.379Z,13.55
2022-09-23T20:14:02.179Z,10.13
2022-09-23T20:16:32.268Z,8.57
2022-09-23T20:19:00.305Z,7.95
2022-09-23T20:21:28.405Z,7.30
2022-09-23T20:23:56.429Z,8.75
2022-09-23T20:26:42.627Z,14.02
2022-09-23T20:29:11.025Z,7.97
2022-09-23T20:31:40.422Z,8.23
2022-09-23T20:34:08.205Z,7.60
2022-09-23T20:36:36.247Z,8.55
2022-09-23T20:39:05.749Z,9.15
2022-09-23T20:41:36.817Z,7.45
2022-09-23T20:44:06.359Z,11.90
2022-09-23T20:46:34.331Z,9.57
2022-09-23T20:49:02.214Z,9.70
2022-09-23T20:51:32.971Z,8.45
2022-09-23T20:54:00.546Z,7.72
2022-09-23T20:56:28.544Z,11.77
2022-09-23T20:59:00.174Z,9.77
2022-09-23T21:01:27.742Z,7.00
2022-09-23T21:03:55.993Z,7.30
2022-09-23T21:06:25.139Z,7.32
2022-09-23T21:08:53.394Z,6.57
2022-09-23T21:11:20.872Z,7.53
2022-09-23T21:13:49.723Z,11.43
2022-09-23T21:16:18.341Z,7.40
2022-09-23T21:18:45.941Z,8.57
2022-09-23T21:21:14.380Z,7.37
2022-09-23T21:23:41.964Z,9.23
2022-09-23T21:26:13.742Z,9.68
2022-09-23T21:28:48.481Z,7.28
2022-09-23T21:31:23.083Z,6.28
2022-09-23T21:34:02.133Z,8.85
2022-09-23T21:36:39.416Z,14.15
2022-09-23T21:39:07.842Z,13.70
2022-09-23T21:41:35.242Z,11.90
2022-09-23T21:44:04.642Z,9.07
2022-09-23T21:46:35.595Z,11.40
2022-09-23T21:49:03.987Z,10.77
2022-09-23T21:51:38.768Z,8.88
2022-09-23T21:54:16.040Z,11.30
2022-09-23T21:56:43.891Z,10.85
2022-09-23T21:59:11.315Z,13.65
2022-09-23T22:01:40.960Z,13.50
2022-09-23T22:04:16.923Z,13.23
2022-09-23T22:06:44.577Z,17.75
2022-09-23T22:09:14.131Z,19.00
2022-09-23T22:12:00.340Z,13.75
2022-09-23T22:14:28.101Z,13.55
2022-09-23T22:16:57.329Z,12.13
2022-09-23T22:19:35.318Z,10.50
2022-09-23T22:22:08.257Z,9.20
2022-09-23T22:24:35.601Z,13.88
2022-09-23T22:27:03.232Z,10.52
2022-09-23T22:29:49.150Z,10.15
2022-09-23T22:32:35.543Z,14.27
2022-09-23T22:35:03.182Z,10.48
2022-09-23T22:37:35.036Z,7.82
2022-09-23T22:40:06.434Z,10.07
2022-09-23T22:42:34.638Z,8.40
2022-09-23T22:45:05.150Z,8.68
2022-09-23T22:47:37.639Z,7.68
2022-09-23T22:50:06.529Z,7.62
2022-09-23T22:52:34.211Z,7.97
2022-09-23T22:55:01.607Z,8.27
2022-09-23T22:57:29.225Z,10.10
2022-09-23T22:59:56.555Z,7.18
2022-09-23T23:02:24.015Z,8.63
2022-09-23T23:04:51.636Z,6.78
2022-09-23T23:07:22.925Z,7.28
2022-09-23T23:09:50.495Z,6.95
2022-09-23T23:12:20.157Z,6.93
2022-09-23T23:14:48.278Z,7.00
2022-09-23T23:17:15.746Z,4.90
2022-09-23T23:19:43.429Z,6.57
2022-09-23T23:22:10.731Z,7.75
2022-09-23T23:24:38.085Z,8.68
2022-09-23T23:27:05.667Z,6.75
2022-09-23T23:29:33.138Z,6.85
2022-09-23T23:32:00.626Z,7.03
2022-09-23T23:34:28.249Z,6.15
2022-09-23T23:36:55.828Z,9.85
2022-09-23T23:39:23.838Z,7.43
2022-09-23T23:41:53.284Z,6.32
2022-09-23T23:44:20.677Z,6.82
2022-09-23T23:46:49.107Z,8.75
2022-09-23T23:49:16.859Z,5.07
2022-09-23T23:51:44.481Z,5.97
2022-09-23T23:54:12.292Z,6.87
2022-09-23T23:56:39.879Z,6.50
2022-09-23T23:59:07.180Z,5.65
